sensor_id;sensor_type;location;lat;lon;timestamp;P1;P2;P0
76661;PMS5003;65579;45.534;6.212;2023-04-23T00:00:50;6;6;
76661;PMS5003;65579;45.534;6.212;2023-04-23T00:03:14;7;7;
76661;PMS5003;65579;45.534;6.212;2023-04-23T00:05:40;7;6;
76661;PMS5003;65579;45.534;6.212;2023-04-23T00:08:05;10;10;
76661;PMS5003;65579;45.534;6.212;2023-04-23T00:10:30;10;10;
76661;PMS5003;65579;45.534;6.212;2023-04-23T00:12:56;10;8;
76661;PMS5003;65579;45.534;6.212;2023-04-23T00:15:20;8;8;
76661;PMS5003;65579;45.534;6.212;2023-04-23T00:17:45;8;8;
76661;PMS5003;65579;45.534;6.212;2023-04-23T00:20:11;11;11;
76661;PMS5003;65579;45.534;6.212;2023-04-23T00:22:36;7;7;
76661;PMS5003;65579;45.534;6.212;2023-04-23T00:25:01;9;9;
76661;PMS5003;65579;45.534;6.212;2023-04-23T00:27:26;6;6;
76661;PMS5003;65579;45.534;6.212;2023-04-23T00:29:52;9;9;
76661;PMS5003;65579;45.534;6.212;2023-04-23T00:32:17;8;8;
76661;PMS5003;65579;45.534;6.212;2023-04-23T00:34:42;10;9;
76661;PMS5003;65579;45.534;6.212;2023-04-23T00:37:07;9;9;
76661;PMS5003;65579;45.534;6.212;2023-04-23T00:39:32;11;11;
76661;PMS5003;65579;45.534;6.212;2023-04-23T00:41:57;10;8;
76661;PMS5003;65579;45.534;6.212;2023-04-23T00:44:23;8;8;
76661;PMS5003;65579;45.534;6.212;2023-04-23T00:46:48;9;9;
76661;PMS5003;65579;45.534;6.212;2023-04-23T00:49:13;8;8;
76661;PMS5003;65579;45.534;6.212;2023-04-23T00:51:38;11;10;
76661;PMS5003;65579;45.534;6.212;2023-04-23T00:54:03;11;10;
76661;PMS5003;65579;45.534;6.212;2023-04-23T00:56:28;8;7;
76661;PMS5003;65579;45.534;6.212;2023-04-23T00:58:54;10;10;
76661;PMS5003;65579;45.534;6.212;2023-04-23T01:01:19;7;7;
76661;PMS5003;65579;45.534;6.212;2023-04-23T01:03:45;9;9;
76661;PMS5003;65579;45.534;6.212;2023-04-23T01:06:10;9;9;
76661;PMS5003;65579;45.534;6.212;2023-04-23T01:08:35;9;8;
76661;PMS5003;65579;45.534;6.212;2023-04-23T01:11:01;12;10;
76661;PMS5003;65579;45.534;6.212;2023-04-23T01:13:26;10;10;
76661;PMS5003;65579;45.534;6.212;2023-04-23T01:15:51;7;7;
76661;PMS5003;65579;45.534;6.212;2023-04-23T01:18:16;11;11;
76661;PMS5003;65579;45.534;6.212;2023-04-23T01:20:41;10;10;
76661;PMS5003;65579;45.534;6.212;2023-04-23T01:23:06;15;15;
76661;PMS5003;65579;45.534;6.212;2023-04-23T01:25:32;9;8;
76661;PMS5003;65579;45.534;6.212;2023-04-23T01:27:57;9;9;
76661;PMS5003;65579;45.534;6.212;2023-04-23T01:30:23;7;6;
76661;PMS5003;65579;45.534;6.212;2023-04-23T01:32:48;8;8;
76661;PMS5003;65579;45.534;6.212;2023-04-23T01:35:14;7;7;
76661;PMS5003;65579;45.534;6.212;2023-04-23T01:37:39;9;9;
76661;PMS5003;65579;45.534;6.212;2023-04-23T01:40:05;8;8;
76661;PMS5003;65579;45.534;6.212;2023-04-23T01:42:29;8;7;
76661;PMS5003;65579;45.534;6.212;2023-04-23T01:44:55;9;9;
76661;PMS5003;65579;45.534;6.212;2023-04-23T01:47:20;11;10;
76661;PMS5003;65579;45.534;6.212;2023-04-23T01:49:45;11;11;
76661;PMS5003;65579;45.534;6.212;2023-04-23T01:52:11;13;11;
76661;PMS5003;65579;45.534;6.212;2023-04-23T01:54:36;13;11;
76661;PMS5003;65579;45.534;6.212;2023-04-23T01:57:02;12;11;
76661;PMS5003;65579;45.534;6.212;2023-04-23T01:59:27;12;12;
76661;PMS5003;65579;45.534;6.212;2023-04-23T02:01:52;14;12;
76661;PMS5003;65579;45.534;6.212;2023-04-23T02:04:18;14;14;
76661;PMS5003;65579;45.534;6.212;2023-04-23T02:06:45;10;9;
76661;PMS5003;65579;45.534;6.212;2023-04-23T02:09:09;11;10;
76661;PMS5003;65579;45.534;6.212;2023-04-23T02:11:34;10;10;
76661;PMS5003;65579;45.534;6.212;2023-04-23T02:13:59;11;10;
76661;PMS5003;65579;45.534;6.212;2023-04-23T02:16:25;11;11;
76661;PMS5003;65579;45.534;6.212;2023-04-23T02:18:50;12;11;
76661;PMS5003;65579;45.534;6.212;2023-04-23T02:21:15;14;14;
76661;PMS5003;65579;45.534;6.212;2023-04-23T02:23:41;20;19;
76661;PMS5003;65579;45.534;6.212;2023-04-23T02:26:06;11;11;
76661;PMS5003;65579;45.534;6.212;2023-04-23T02:28:32;10;9;
76661;PMS5003;65579;45.534;6.212;2023-04-23T02:30:57;11;11;
76661;PMS5003;65579;45.534;6.212;2023-04-23T02:33:22;10;10;
76661;PMS5003;65579;45.534;6.212;2023-04-23T02:35:48;10;10;
76661;PMS5003;65579;45.534;6.212;2023-04-23T02:38:13;10;10;
76661;PMS5003;65579;45.534;6.212;2023-04-23T02:40:38;10;9;
76661;PMS5003;65579;45.534;6.212;2023-04-23T02:43:04;10;10;
76661;PMS5003;65579;45.534;6.212;2023-04-23T02:45:29;12;12;
76661;PMS5003;65579;45.534;6.212;2023-04-23T02:47:54;15;13;
76661;PMS5003;65579;45.534;6.212;2023-04-23T02:50:20;9;9;
76661;PMS5003;65579;45.534;6.212;2023-04-23T02:52:45;14;11;
76661;PMS5003;65579;45.534;6.212;2023-04-23T02:55:10;13;11;
76661;PMS5003;65579;45.534;6.212;2023-04-23T02:57:35;12;11;
76661;PMS5003;65579;45.534;6.212;2023-04-23T03:00:01;11;11;
76661;PMS5003;65579;45.534;6.212;2023-04-23T03:02:26;11;11;
76661;PMS5003;65579;45.534;6.212;2023-04-23T03:04:52;12;10;
76661;PMS5003;65579;45.534;6.212;2023-04-23T03:07:17;12;12;
76661;PMS5003;65579;45.534;6.212;2023-04-23T03:09:42;13;12;
76661;PMS5003;65579;45.534;6.212;2023-04-23T03:12:08;12;11;
76661;PMS5003;65579;45.534;6.212;2023-04-23T03:14:33;11;10;
76661;PMS5003;65579;45.534;6.212;2023-04-23T03:16:59;11;11;
76661;PMS5003;65579;45.534;6.212;2023-04-23T03:19:24;9;8;
76661;PMS5003;65579;45.534;6.212;2023-04-23T03:21:49;10;10;
76661;PMS5003;65579;45.534;6.212;2023-04-23T03:24:14;9;9;
76661;PMS5003;65579;45.534;6.212;2023-04-23T03:26:39;10;9;
76661;PMS5003;65579;45.534;6.212;2023-04-23T03:29:05;11;11;
76661;PMS5003;65579;45.534;6.212;2023-04-23T03:31:30;14;13;
76661;PMS5003;65579;45.534;6.212;2023-04-23T03:33:55;10;10;
76661;PMS5003;65579;45.534;6.212;2023-04-23T03:36:20;11;11;
76661;PMS5003;65579;45.534;6.212;2023-04-23T03:38:46;12;12;
76661;PMS5003;65579;45.534;6.212;2023-04-23T03:41:11;13;13;
76661;PMS5003;65579;45.534;6.212;2023-04-23T03:43:36;10;10;
76661;PMS5003;65579;45.534;6.212;2023-04-23T03:46:02;11;9;
76661;PMS5003;65579;45.534;6.212;2023-04-23T03:48:27;10;9;
76661;PMS5003;65579;45.534;6.212;2023-04-23T03:50:52;12;12;
76661;PMS5003;65579;45.534;6.212;2023-04-23T03:53:18;14;12;
76661;PMS5003;65579;45.534;6.212;2023-04-23T03:55:43;15;12;
76661;PMS5003;65579;45.534;6.212;2023-04-23T03:58:09;12;9;
76661;PMS5003;65579;45.534;6.212;2023-04-23T04:00:34;10;10;
76661;PMS5003;65579;45.534;6.212;2023-04-23T04:03:00;11;11;
76661;PMS5003;65579;45.534;6.212;2023-04-23T04:05:25;12;12;
76661;PMS5003;65579;45.534;6.212;2023-04-23T04:07:50;11;11;
76661;PMS5003;65579;45.534;6.212;2023-04-23T04:10:15;12;11;
76661;PMS5003;65579;45.534;6.212;2023-04-23T04:12:41;12;10;
76661;PMS5003;65579;45.534;6.212;2023-04-23T04:15:06;11;11;
76661;PMS5003;65579;45.534;6.212;2023-04-23T04:17:32;12;11;
76661;PMS5003;65579;45.534;6.212;2023-04-23T04:19:57;12;12;
76661;PMS5003;65579;45.534;6.212;2023-04-23T04:22:22;14;14;
76661;PMS5003;65579;45.534;6.212;2023-04-23T04:24:48;19;16;
76661;PMS5003;65579;45.534;6.212;2023-04-23T04:27:13;16;15;
76661;PMS5003;65579;45.534;6.212;2023-04-23T04:29:39;12;12;
76661;PMS5003;65579;45.534;6.212;2023-04-23T04:32:05;13;12;
76661;PMS5003;65579;45.534;6.212;2023-04-23T04:34:30;13;13;
76661;PMS5003;65579;45.534;6.212;2023-04-23T04:36:55;15;14;
76661;PMS5003;65579;45.534;6.212;2023-04-23T04:39:20;12;12;
76661;PMS5003;65579;45.534;6.212;2023-04-23T04:41:46;15;15;
76661;PMS5003;65579;45.534;6.212;2023-04-23T04:44:11;21;18;
76661;PMS5003;65579;45.534;6.212;2023-04-23T04:46:36;15;15;
76661;PMS5003;65579;45.534;6.212;2023-04-23T04:49:01;17;17;
76661;PMS5003;65579;45.534;6.212;2023-04-23T04:51:27;12;12;
76661;PMS5003;65579;45.534;6.212;2023-04-23T04:53:52;15;13;
76661;PMS5003;65579;45.534;6.212;2023-04-23T04:56:17;11;11;
76661;PMS5003;65579;45.534;6.212;2023-04-23T04:58:42;15;15;
76661;PMS5003;65579;45.534;6.212;2023-04-23T05:01:07;10;10;
76661;PMS5003;65579;45.534;6.212;2023-04-23T05:03:33;11;11;
76661;PMS5003;65579;45.534;6.212;2023-04-23T05:05:58;11;11;
76661;PMS5003;65579;45.534;6.212;2023-04-23T05:08:23;11;11;
76661;PMS5003;65579;45.534;6.212;2023-04-23T05:10:48;13;12;
76661;PMS5003;65579;45.534;6.212;2023-04-23T05:13:14;11;11;
76661;PMS5003;65579;45.534;6.212;2023-04-23T05:15:39;14;12;
76661;PMS5003;65579;45.534;6.212;2023-04-23T05:18:05;13;11;
76661;PMS5003;65579;45.534;6.212;2023-04-23T05:20:31;10;9;
76661;PMS5003;65579;45.534;6.212;2023-04-23T05:22:56;14;13;
76661;PMS5003;65579;45.534;6.212;2023-04-23T05:25:21;14;13;
76661;PMS5003;65579;45.534;6.212;2023-04-23T05:27:47;14;11;
76661;PMS5003;65579;45.534;6.212;2023-04-23T05:30:12;14;12;
76661;PMS5003;65579;45.534;6.212;2023-04-23T05:32:37;9;9;
76661;PMS5003;65579;45.534;6.212;2023-04-23T05:35:03;12;12;
76661;PMS5003;65579;45.534;6.212;2023-04-23T05:37:28;22;20;
76661;PMS5003;65579;45.534;6.212;2023-04-23T05:39:54;14;14;
76661;PMS5003;65579;45.534;6.212;2023-04-23T05:42:19;15;15;
76661;PMS5003;65579;45.534;6.212;2023-04-23T05:44:44;14;14;
76661;PMS5003;65579;45.534;6.212;2023-04-23T05:47:09;13;13;
76661;PMS5003;65579;45.534;6.212;2023-04-23T05:49:34;14;14;
76661;PMS5003;65579;45.534;6.212;2023-04-23T05:52:00;18;17;
76661;PMS5003;65579;45.534;6.212;2023-04-23T05:54:26;12;11;
76661;PMS5003;65579;45.534;6.212;2023-04-23T05:56:51;20;17;
76661;PMS5003;65579;45.534;6.212;2023-04-23T05:59:16;13;13;
76661;PMS5003;65579;45.534;6.212;2023-04-23T06:01:42;15;15;
76661;PMS5003;65579;45.534;6.212;2023-04-23T06:04:07;13;13;
76661;PMS5003;65579;45.534;6.212;2023-04-23T06:06:32;18;18;
76661;PMS5003;65579;45.534;6.212;2023-04-23T06:08:57;13;13;
76661;PMS5003;65579;45.534;6.212;2023-04-23T06:11:22;18;17;
76661;PMS5003;65579;45.534;6.212;2023-04-23T06:13:48;19;16;
76661;PMS5003;65579;45.534;6.212;2023-04-23T06:16:13;16;16;
76661;PMS5003;65579;45.534;6.212;2023-04-23T06:18:39;14;14;
76661;PMS5003;65579;45.534;6.212;2023-04-23T06:21:05;13;13;
76661;PMS5003;65579;45.534;6.212;2023-04-23T06:23:31;12;12;
76661;PMS5003;65579;45.534;6.212;2023-04-23T06:25:56;14;13;
76661;PMS5003;65579;45.534;6.212;2023-04-23T06:28:21;16;16;
76661;PMS5003;65579;45.534;6.212;2023-04-23T06:30:47;15;15;
76661;PMS5003;65579;45.534;6.212;2023-04-23T06:33:12;18;17;
76661;PMS5003;65579;45.534;6.212;2023-04-23T06:35:37;12;12;
76661;PMS5003;65579;45.534;6.212;2023-04-23T06:38:02;14;14;
76661;PMS5003;65579;45.534;6.212;2023-04-23T06:40:27;15;15;
76661;PMS5003;65579;45.534;6.212;2023-04-23T06:42:53;16;15;
76661;PMS5003;65579;45.534;6.212;2023-04-23T06:45:18;12;12;
76661;PMS5003;65579;45.534;6.212;2023-04-23T06:47:44;14;14;
76661;PMS5003;65579;45.534;6.212;2023-04-23T06:50:08;15;14;
76661;PMS5003;65579;45.534;6.212;2023-04-23T06:52:34;20;18;
76661;PMS5003;65579;45.534;6.212;2023-04-23T06:54:59;12;12;
76661;PMS5003;65579;45.534;6.212;2023-04-23T06:57:25;13;13;
76661;PMS5003;65579;45.534;6.212;2023-04-23T06:59:50;12;12;
76661;PMS5003;65579;45.534;6.212;2023-04-23T07:02:15;18;17;
76661;PMS5003;65579;45.534;6.212;2023-04-23T07:04:41;12;12;
76661;PMS5003;65579;45.534;6.212;2023-04-23T07:07:06;14;13;
76661;PMS5003;65579;45.534;6.212;2023-04-23T07:09:32;16;15;
76661;PMS5003;65579;45.534;6.212;2023-04-23T07:11:57;13;13;
76661;PMS5003;65579;45.534;6.212;2023-04-23T07:14:22;15;14;
76661;PMS5003;65579;45.534;6.212;2023-04-23T07:16:47;16;16;
76661;PMS5003;65579;45.534;6.212;2023-04-23T07:19:12;13;12;
76661;PMS5003;65579;45.534;6.212;2023-04-23T07:21:38;15;15;
76661;PMS5003;65579;45.534;6.212;2023-04-23T07:24:03;14;13;
76661;PMS5003;65579;45.534;6.212;2023-04-23T07:26:28;15;15;
76661;PMS5003;65579;45.534;6.212;2023-04-23T07:28:54;13;13;
76661;PMS5003;65579;45.534;6.212;2023-04-23T07:31:19;12;10;
76661;PMS5003;65579;45.534;6.212;2023-04-23T07:33:44;17;15;
76661;PMS5003;65579;45.534;6.212;2023-04-23T07:36:10;12;12;
76661;PMS5003;65579;45.534;6.212;2023-04-23T07:38:35;16;14;
76661;PMS5003;65579;45.534;6.212;2023-04-23T07:41:01;15;15;
76661;PMS5003;65579;45.534;6.212;2023-04-23T07:43:25;12;12;
76661;PMS5003;65579;45.534;6.212;2023-04-23T07:45:50;14;14;
76661;PMS5003;65579;45.534;6.212;2023-04-23T07:48:16;12;12;
76661;PMS5003;65579;45.534;6.212;2023-04-23T07:50:41;16;14;
76661;PMS5003;65579;45.534;6.212;2023-04-23T07:53:06;12;12;
76661;PMS5003;65579;45.534;6.212;2023-04-23T07:55:31;11;11;
76661;PMS5003;65579;45.534;6.212;2023-04-23T07:57:56;12;12;
76661;PMS5003;65579;45.534;6.212;2023-04-23T08:00:22;15;13;
76661;PMS5003;65579;45.534;6.212;2023-04-23T08:02:47;12;12;
76661;PMS5003;65579;45.534;6.212;2023-04-23T08:05:13;11;10;
76661;PMS5003;65579;45.534;6.212;2023-04-23T08:07:38;11;11;
76661;PMS5003;65579;45.534;6.212;2023-04-23T08:10:04;11;11;
76661;PMS5003;65579;45.534;6.212;2023-04-23T08:12:29;13;11;
76661;PMS5003;65579;45.534;6.212;2023-04-23T08:14:54;11;11;
76661;PMS5003;65579;45.534;6.212;2023-04-23T08:17:20;14;12;
76661;PMS5003;65579;45.534;6.212;2023-04-23T08:19:45;12;12;
76661;PMS5003;65579;45.534;6.212;2023-04-23T08:22:10;10;10;
76661;PMS5003;65579;45.534;6.212;2023-04-23T08:24:35;13;12;
76661;PMS5003;65579;45.534;6.212;2023-04-23T08:27:01;12;11;
76661;PMS5003;65579;45.534;6.212;2023-04-23T08:29:26;15;15;
76661;PMS5003;65579;45.534;6.212;2023-04-23T08:31:51;9;9;
76661;PMS5003;65579;45.534;6.212;2023-04-23T08:34:17;14;14;
76661;PMS5003;65579;45.534;6.212;2023-04-23T08:36:43;9;9;
76661;PMS5003;65579;45.534;6.212;2023-04-23T08:39:08;12;12;
76661;PMS5003;65579;45.534;6.212;2023-04-23T08:41:37;16;16;
76661;PMS5003;65579;45.534;6.212;2023-04-23T08:44:00;12;11;
76661;PMS5003;65579;45.534;6.212;2023-04-23T08:46:23;17;14;
76661;PMS5003;65579;45.534;6.212;2023-04-23T08:48:50;12;12;
76661;PMS5003;65579;45.534;6.212;2023-04-23T08:51:16;11;9;
76661;PMS5003;65579;45.534;6.212;2023-04-23T08:53:39;12;12;
76661;PMS5003;65579;45.534;6.212;2023-04-23T08:56:05;11;11;
76661;PMS5003;65579;45.534;6.212;2023-04-23T08:58:30;9;9;
76661;PMS5003;65579;45.534;6.212;2023-04-23T09:00:56;13;10;
76661;PMS5003;65579;45.534;6.212;2023-04-23T09:03:20;11;11;
76661;PMS5003;65579;45.534;6.212;2023-04-23T09:05:45;11;11;
76661;PMS5003;65579;45.534;6.212;2023-04-23T09:08:10;10;10;
76661;PMS5003;65579;45.534;6.212;2023-04-23T09:10:36;11;11;
76661;PMS5003;65579;45.534;6.212;2023-04-23T09:13:01;8;8;
76661;PMS5003;65579;45.534;6.212;2023-04-23T09:15:26;10;9;
76661;PMS5003;65579;45.534;6.212;2023-04-23T09:17:51;8;8;
76661;PMS5003;65579;45.534;6.212;2023-04-23T09:20:16;8;8;
76661;PMS5003;65579;45.534;6.212;2023-04-23T09:22:42;10;10;
76661;PMS5003;65579;45.534;6.212;2023-04-23T09:25:08;9;9;
76661;PMS5003;65579;45.534;6.212;2023-04-23T09:27:32;9;9;
76661;PMS5003;65579;45.534;6.212;2023-04-23T09:29:57;7;7;
76661;PMS5003;65579;45.534;6.212;2023-04-23T09:34:47;8;8;
76661;PMS5003;65579;45.534;6.212;2023-04-23T09:37:12;11;7;
76661;PMS5003;65579;45.534;6.212;2023-04-23T09:39:38;10;10;
76661;PMS5003;65579;45.534;6.212;2023-04-23T09:42:04;10;8;
76661;PMS5003;65579;45.534;6.212;2023-04-23T09:44:30;9;8;
76661;PMS5003;65579;45.534;6.212;2023-04-23T09:46:53;8;8;
76661;PMS5003;65579;45.534;6.212;2023-04-23T09:49:18;8;8;
76661;PMS5003;65579;45.534;6.212;2023-04-23T09:51:44;9;7;
76661;PMS5003;65579;45.534;6.212;2023-04-23T09:54:10;9;8;
76661;PMS5003;65579;45.534;6.212;2023-04-23T09:56:33;8;7;
76661;PMS5003;65579;45.534;6.212;2023-04-23T09:58:59;5;5;
76661;PMS5003;65579;45.534;6.212;2023-04-23T10:01:26;9;9;
76661;PMS5003;65579;45.534;6.212;2023-04-23T10:03:51;6;6;
76661;PMS5003;65579;45.534;6.212;2023-04-23T10:06:14;6;6;
76661;PMS5003;65579;45.534;6.212;2023-04-23T10:08:40;6;6;
76661;PMS5003;65579;45.534;6.212;2023-04-23T10:11:05;7;7;
76661;PMS5003;65579;45.534;6.212;2023-04-23T10:13:30;6;6;
76661;PMS5003;65579;45.534;6.212;2023-04-23T10:15:55;6;6;
76661;PMS5003;65579;45.534;6.212;2023-04-23T10:18:20;7;7;
76661;PMS5003;65579;45.534;6.212;2023-04-23T10:20:45;4;4;
76661;PMS5003;65579;45.534;6.212;2023-04-23T10:23:11;8;8;
76661;PMS5003;65579;45.534;6.212;2023-04-23T10:25:36;5;5;
76661;PMS5003;65579;45.534;6.212;2023-04-23T10:28:02;7;7;
76661;PMS5003;65579;45.534;6.212;2023-04-23T10:30:28;8;8;
76661;PMS5003;65579;45.534;6.212;2023-04-23T10:32:54;8;8;
76661;PMS5003;65579;45.534;6.212;2023-04-23T10:35:19;11;10;
76661;PMS5003;65579;45.534;6.212;2023-04-23T10:37:45;9;8;
76661;PMS5003;65579;45.534;6.212;2023-04-23T10:40:12;9;8;
76661;PMS5003;65579;45.534;6.212;2023-04-23T10:42:37;9;8;
76661;PMS5003;65579;45.534;6.212;2023-04-23T10:45:06;7;7;
76661;PMS5003;65579;45.534;6.212;2023-04-23T10:47:28;8;8;
76661;PMS5003;65579;45.534;6.212;2023-04-23T10:49:54;9;8;
76661;PMS5003;65579;45.534;6.212;2023-04-23T10:52:20;6;6;
76661;PMS5003;65579;45.534;6.212;2023-04-23T10:54:47;8;6;
76661;PMS5003;65579;45.534;6.212;2023-04-23T10:57:11;14;14;
76661;PMS5003;65579;45.534;6.212;2023-04-23T10:59:37;7;7;
76661;PMS5003;65579;45.534;6.212;2023-04-23T11:02:06;9;7;
76661;PMS5003;65579;45.534;6.212;2023-04-23T11:04:28;8;8;
76661;PMS5003;65579;45.534;6.212;2023-04-23T11:06:56;6;6;
76661;PMS5003;65579;45.534;6.212;2023-04-23T11:09:29;9;8;
76661;PMS5003;65579;45.534;6.212;2023-04-23T11:11:45;8;6;
76661;PMS5003;65579;45.534;6.212;2023-04-23T11:14:11;7;7;
76661;PMS5003;65579;45.534;6.212;2023-04-23T11:16:37;7;6;
76661;PMS5003;65579;45.534;6.212;2023-04-23T11:19:07;10;8;
76661;PMS5003;65579;45.534;6.212;2023-04-23T11:23:55;7;7;
76661;PMS5003;65579;45.534;6.212;2023-04-23T11:26:20;9;9;
76661;PMS5003;65579;45.534;6.212;2023-04-23T11:28:46;7;7;
76661;PMS5003;65579;45.534;6.212;2023-04-23T11:31:12;8;8;
76661;PMS5003;65579;45.534;6.212;2023-04-23T11:33:38;13;10;
76661;PMS5003;65579;45.534;6.212;2023-04-23T11:36:04;10;7;
76661;PMS5003;65579;45.534;6.212;2023-04-23T11:38:30;11;9;
76661;PMS5003;65579;45.534;6.212;2023-04-23T11:40:55;10;10;
76661;PMS5003;65579;45.534;6.212;2023-04-23T11:43:21;9;8;
76661;PMS5003;65579;45.534;6.212;2023-04-23T11:45:47;11;9;
76661;PMS5003;65579;45.534;6.212;2023-04-23T11:48:12;9;7;
76661;PMS5003;65579;45.534;6.212;2023-04-23T11:50:38;11;8;
76661;PMS5003;65579;45.534;6.212;2023-04-23T11:53:04;9;8;
76661;PMS5003;65579;45.534;6.212;2023-04-23T11:55:29;7;7;
76661;PMS5003;65579;45.534;6.212;2023-04-23T11:57:55;8;8;
76661;PMS5003;65579;45.534;6.212;2023-04-23T12:00:22;8;7;
76661;PMS5003;65579;45.534;6.212;2023-04-23T12:02:50;6;5;
76661;PMS5003;65579;45.534;6.212;2023-04-23T12:05:13;6;6;
76661;PMS5003;65579;45.534;6.212;2023-04-23T12:07:38;8;8;
76661;PMS5003;65579;45.534;6.212;2023-04-23T12:10:05;5;5;
76661;PMS5003;65579;45.534;6.212;2023-04-23T12:12:33;7;7;
76661;PMS5003;65579;45.534;6.212;2023-04-23T12:17:21;9;7;
76661;PMS5003;65579;45.534;6.212;2023-04-23T12:19:47;8;8;
76661;PMS5003;65579;45.534;6.212;2023-04-23T12:22:13;7;7;
76661;PMS5003;65579;45.534;6.212;2023-04-23T12:24:45;9;9;
76661;PMS5003;65579;45.534;6.212;2023-04-23T12:27:04;9;7;
76661;PMS5003;65579;45.534;6.212;2023-04-23T12:29:30;7;6;
76661;PMS5003;65579;45.534;6.212;2023-04-23T12:31:56;5;5;
76661;PMS5003;65579;45.534;6.212;2023-04-23T12:34:21;8;7;
76661;PMS5003;65579;45.534;6.212;2023-04-23T12:36:48;8;7;
76661;PMS5003;65579;45.534;6.212;2023-04-23T12:39:19;9;6;
76661;PMS5003;65579;45.534;6.212;2023-04-23T12:41:38;13;12;
76661;PMS5003;65579;45.534;6.212;2023-04-23T12:44:04;7;7;
76661;PMS5003;65579;45.534;6.212;2023-04-23T12:46:30;9;9;
76661;PMS5003;65579;45.534;6.212;2023-04-23T12:48:55;6;6;
76661;PMS5003;65579;45.534;6.212;2023-04-23T12:51:21;7;7;
76661;PMS5003;65579;45.534;6.212;2023-04-23T12:53:47;7;6;
76661;PMS5003;65579;45.534;6.212;2023-04-23T12:56:13;9;6;
76661;PMS5003;65579;45.534;6.212;2023-04-23T12:58:38;5;5;
76661;PMS5003;65579;45.534;6.212;2023-04-23T13:01:04;8;8;
76661;PMS5003;65579;45.534;6.212;2023-04-23T13:03:30;7;7;
76661;PMS5003;65579;45.534;6.212;2023-04-23T13:05:56;6;6;
76661;PMS5003;65579;45.534;6.212;2023-04-23T13:08:21;6;6;
76661;PMS5003;65579;45.534;6.212;2023-04-23T13:10:47;7;7;
76661;PMS5003;65579;45.534;6.212;2023-04-23T13:13:13;8;8;
76661;PMS5003;65579;45.534;6.212;2023-04-23T13:15:39;7;7;
76661;PMS5003;65579;45.534;6.212;2023-04-23T13:18:05;8;8;
76661;PMS5003;65579;45.534;6.212;2023-04-23T13:20:30;7;7;
76661;PMS5003;65579;45.534;6.212;2023-04-23T13:22:56;6;6;
76661;PMS5003;65579;45.534;6.212;2023-04-23T13:25:22;6;6;
76661;PMS5003;65579;45.534;6.212;2023-04-23T13:27:47;8;8;
76661;PMS5003;65579;45.534;6.212;2023-04-23T13:30:13;6;6;
76661;PMS5003;65579;45.534;6.212;2023-04-23T13:32:39;6;6;
76661;PMS5003;65579;45.534;6.212;2023-04-23T13:35:05;8;6;
76661;PMS5003;65579;45.534;6.212;2023-04-23T13:37:31;7;7;
76661;PMS5003;65579;45.534;6.212;2023-04-23T13:39:56;7;6;
76661;PMS5003;65579;45.534;6.212;2023-04-23T13:42:22;7;7;
76661;PMS5003;65579;45.534;6.212;2023-04-23T13:44:48;5;5;
76661;PMS5003;65579;45.534;6.212;2023-04-23T13:47:13;5;5;
76661;PMS5003;65579;45.534;6.212;2023-04-23T13:49:39;11;10;
76661;PMS5003;65579;45.534;6.212;2023-04-23T13:52:06;9;8;
76661;PMS5003;65579;45.534;6.212;2023-04-23T13:54:30;7;7;
76661;PMS5003;65579;45.534;6.212;2023-04-23T13:56:56;4;4;
76661;PMS5003;65579;45.534;6.212;2023-04-23T13:59:22;6;6;
76661;PMS5003;65579;45.534;6.212;2023-04-23T14:01:48;5;5;
76661;PMS5003;65579;45.534;6.212;2023-04-23T14:04:14;7;6;
76661;PMS5003;65579;45.534;6.212;2023-04-23T14:06:39;4;4;
76661;PMS5003;65579;45.534;6.212;2023-04-23T14:09:05;5;5;
76661;PMS5003;65579;45.534;6.212;2023-04-23T14:11:31;4;4;
76661;PMS5003;65579;45.534;6.212;2023-04-23T14:13:57;4;4;
76661;PMS5003;65579;45.534;6.212;2023-04-23T14:16:23;5;5;
76661;PMS5003;65579;45.534;6.212;2023-04-23T14:18:49;3;3;
76661;PMS5003;65579;45.534;6.212;2023-04-23T14:21:14;6;5;
76661;PMS5003;65579;45.534;6.212;2023-04-23T14:23:44;5;5;
76661;PMS5003;65579;45.534;6.212;2023-04-23T14:26:07;5;5;
76661;PMS5003;65579;45.534;6.212;2023-04-23T14:28:33;3;2;
76661;PMS5003;65579;45.534;6.212;2023-04-23T14:30:57;3;3;
76661;PMS5003;65579;45.534;6.212;2023-04-23T14:33:23;7;6;
76661;PMS5003;65579;45.534;6.212;2023-04-23T14:35:49;4;4;
76661;PMS5003;65579;45.534;6.212;2023-04-23T14:38:15;5;5;
76661;PMS5003;65579;45.534;6.212;2023-04-23T14:40:40;7;5;
76661;PMS5003;65579;45.534;6.212;2023-04-23T14:43:06;3;3;
76661;PMS5003;65579;45.534;6.212;2023-04-23T14:45:32;3;3;
76661;PMS5003;65579;45.534;6.212;2023-04-23T14:47:58;3;3;
76661;PMS5003;65579;45.534;6.212;2023-04-23T14:50:24;3;3;
76661;PMS5003;65579;45.534;6.212;2023-04-23T14:52:49;1;1;
76661;PMS5003;65579;45.534;6.212;2023-04-23T14:55:15;4;3;
76661;PMS5003;65579;45.534;6.212;2023-04-23T14:57:41;3;3;
76661;PMS5003;65579;45.534;6.212;2023-04-23T15:00:07;2;2;
76661;PMS5003;65579;45.534;6.212;2023-04-23T15:02:33;3;3;
76661;PMS5003;65579;45.534;6.212;2023-04-23T15:04:58;3;3;
76661;PMS5003;65579;45.534;6.212;2023-04-23T15:07:24;3;3;
76661;PMS5003;65579;45.534;6.212;2023-04-23T15:09:50;3;3;
76661;PMS5003;65579;45.534;6.212;2023-04-23T15:14:42;4;4;
76661;PMS5003;65579;45.534;6.212;2023-04-23T15:17:08;3;3;
76661;PMS5003;65579;45.534;6.212;2023-04-23T15:19:34;3;3;
76661;PMS5003;65579;45.534;6.212;2023-04-23T15:21:59;4;3;
76661;PMS5003;65579;45.534;6.212;2023-04-23T15:24:25;4;4;
76661;PMS5003;65579;45.534;6.212;2023-04-23T15:26:51;3;3;
76661;PMS5003;65579;45.534;6.212;2023-04-23T15:29:17;3;3;
76661;PMS5003;65579;45.534;6.212;2023-04-23T15:31:43;3;3;
76661;PMS5003;65579;45.534;6.212;2023-04-23T15:34:09;4;4;
76661;PMS5003;65579;45.534;6.212;2023-04-23T15:36:34;4;4;
76661;PMS5003;65579;45.534;6.212;2023-04-23T15:39:00;6;6;
76661;PMS5003;65579;45.534;6.212;2023-04-23T15:41:26;3;3;
76661;PMS5003;65579;45.534;6.212;2023-04-23T15:43:51;1;1;
76661;PMS5003;65579;45.534;6.212;2023-04-23T15:46:16;3;2;
76661;PMS5003;65579;45.534;6.212;2023-04-23T15:48:41;1;1;
76661;PMS5003;65579;45.534;6.212;2023-04-23T15:51:06;2;2;
76661;PMS5003;65579;45.534;6.212;2023-04-23T15:53:31;3;2;
76661;PMS5003;65579;45.534;6.212;2023-04-23T15:55:57;1;1;
76661;PMS5003;65579;45.534;6.212;2023-04-23T15:58:22;2;1;
76661;PMS5003;65579;45.534;6.212;2023-04-23T16:00:47;1;1;
76661;PMS5003;65579;45.534;6.212;2023-04-23T16:03:12;1;1;
76661;PMS5003;65579;45.534;6.212;2023-04-23T16:05:37;1;1;
76661;PMS5003;65579;45.534;6.212;2023-04-23T16:08:02;2;2;
76661;PMS5003;65579;45.534;6.212;2023-04-23T16:10:27;2;2;
76661;PMS5003;65579;45.534;6.212;2023-04-23T16:12:52;1;1;
76661;PMS5003;65579;45.534;6.212;2023-04-23T16:15:17;1;1;
76661;PMS5003;65579;45.534;6.212;2023-04-23T16:17:42;0;0;
76661;PMS5003;65579;45.534;6.212;2023-04-23T16:20:08;1;1;
76661;PMS5003;65579;45.534;6.212;2023-04-23T16:22:33;1;1;
76661;PMS5003;65579;45.534;6.212;2023-04-23T16:24:57;0;0;
76661;PMS5003;65579;45.534;6.212;2023-04-23T16:27:23;0;0;
76661;PMS5003;65579;45.534;6.212;2023-04-23T16:29:48;4;3;